createdAt,value
2023-01-19T00:00:50.336Z,0.26
2023-01-19T00:03:16.714Z,0.17
2023-01-19T00:05:43.067Z,0.25
2023-01-19T00:08:09.451Z,0.16
2023-01-19T00:10:35.810Z,0.02
2023-01-19T00:13:02.575Z,0.12
2023-01-19T00:15:29.190Z,0.09
2023-01-19T00:17:55.591Z,0.06
2023-01-19T00:20:21.982Z,-0.03
2023-01-19T00:22:48.345Z,-0.07
2023-01-19T00:25:14.719Z,-0.04
2023-01-19T00:27:41.088Z,0.05
2023-01-19T00:30:07.469Z,0.13
2023-01-19T00:32:33.861Z,0.13
2023-01-19T00:35:00.227Z,-0.02
2023-01-19T00:37:26.604Z,-0.03
2023-01-19T00:39:53.236Z,-0.15
2023-01-19T00:42:19.634Z,-0.13
2023-01-19T00:44:46.014Z,-0.15
2023-01-19T00:47:12.380Z,-0.11
2023-01-19T00:49:38.823Z,-0.11
2023-01-19T00:52:05.203Z,-0.10
2023-01-19T00:54:31.586Z,-0.13
2023-01-19T00:56:57.970Z,-0.14
2023-01-19T00:59:24.355Z,-0.16
2023-01-19T01:01:50.867Z,-0.12
2023-01-19T01:04:17.313Z,-0.15
2023-01-19T01:06:43.752Z,-0.17
2023-01-19T01:09:10.109Z,-0.15
2023-01-19T01:11:36.494Z,-0.14
2023-01-19T01:14:02.879Z,-0.12
2023-01-19T01:16:29.909Z,-0.13
2023-01-19T01:18:56.288Z,-0.09
2023-01-19T01:21:22.667Z,-0.13
2023-01-19T01:23:49.050Z,-0.13
2023-01-19T01:26:15.422Z,-0.13
2023-01-19T01:28:41.796Z,-0.12
2023-01-19T01:31:08.196Z,-0.09
2023-01-19T01:33:41.031Z,-0.17
2023-01-19T01:36:08.198Z,-0.12
2023-01-19T01:38:34.582Z,-0.14
2023-01-19T01:41:00.992Z,-0.22
2023-01-19T01:43:27.389Z,-0.21
2023-01-19T01:45:53.815Z,-0.19
2023-01-19T01:48:20.242Z,-0.15
2023-01-19T01:50:46.635Z,-0.17
2023-01-19T01:53:13.037Z,-0.22
2023-01-19T01:55:39.428Z,-0.29
2023-01-19T01:58:05.828Z,-0.30
2023-01-19T02:00:32.202Z,-0.26
2023-01-19T02:02:58.975Z,-0.20
2023-01-19T02:05:25.626Z,-0.18
2023-01-19T02:07:52.064Z,-0.14
2023-01-19T02:10:18.445Z,-0.20
2023-01-19T02:12:44.812Z,-0.30
2023-01-19T02:15:11.188Z,-0.32
2023-01-19T02:17:37.575Z,-0.27
2023-01-19T02:20:03.944Z,-0.24
2023-01-19T02:22:30.333Z,-0.10
2023-01-19T02:24:56.703Z,-0.07
2023-01-19T02:27:23.078Z,-0.03
2023-01-19T02:29:49.465Z,-0.05
2023-01-19T02:32:15.830Z,-0.12
2023-01-19T02:34:42.201Z,-0.15
2023-01-19T02:37:08.632Z,-0.16
2023-01-19T02:39:35.033Z,-0.23
2023-01-19T02:42:01.510Z,-0.25
2023-01-19T02:44:27.901Z,-0.16
2023-01-19T02:46:54.360Z,-0.16
2023-01-19T02:49:20.735Z,-0.24
2023-01-19T02:51:47.105Z,-0.37
2023-01-19T02:54:13.472Z,-0.36
2023-01-19T02:56:39.864Z,-0.27
2023-01-19T02:59:06.243Z,-0.21
2023-01-19T03:01:32.788Z,-0.35
2023-01-19T03:03:59.269Z,-0.24
2023-01-19T03:06:25.648Z,-0.26
2023-01-19T03:08:52.053Z,-0.43
2023-01-19T03:11:18.435Z,-0.48
2023-01-19T03:13:44.821Z,-0.52
2023-01-19T03:16:11.298Z,-0.53
2023-01-19T03:18:37.757Z,-0.51
2023-01-19T03:21:04.154Z,-0.52
2023-01-19T03:23:30.514Z,-0.52
2023-01-19T03:25:56.890Z,-0.58
2023-01-19T03:28:23.327Z,-0.54
2023-01-19T03:30:49.747Z,-0.53
2023-01-19T03:33:16.133Z,-0.56
2023-01-19T03:35:42.504Z,-0.57
2023-01-19T03:38:08.875Z,-0.55
2023-01-19T03:40:35.296Z,-0.55
2023-01-19T03:43:02.195Z,-0.51
2023-01-19T03:45:28.820Z,-0.53
2023-01-19T03:47:55.214Z,-0.57
2023-01-19T03:50:21.577Z,-0.53
2023-01-19T03:52:47.952Z,-0.55
2023-01-19T03:55:14.314Z,-0.56
2023-01-19T03:57:40.665Z,-0.54
2023-01-19T04:00:07.097Z,-0.49
2023-01-19T04:02:33.524Z,-0.47
2023-01-19T04:04:59.936Z,-0.60
2023-01-19T04:07:26.492Z,-0.56
2023-01-19T04:09:52.911Z,-0.58
2023-01-19T04:12:19.292Z,-0.43
2023-01-19T04:14:45.663Z,-0.38
2023-01-19T04:17:12.052Z,-0.26
2023-01-19T04:19:38.432Z,-0.25
2023-01-19T04:22:04.865Z,-0.22
2023-01-19T04:24:31.291Z,-0.25
2023-01-19T04:26:57.648Z,-0.25
2023-01-19T04:29:24.013Z,-0.23
2023-01-19T04:31:50.448Z,-0.20
2023-01-19T04:34:16.832Z,-0.30
2023-01-19T04:36:43.204Z,-0.28
2023-01-19T04:39:09.573Z,-0.20
2023-01-19T04:41:35.991Z,-0.26
2023-01-19T04:44:02.477Z,-0.17
2023-01-19T04:46:28.883Z,-0.19
2023-01-19T04:48:55.300Z,-0.33
2023-01-19T04:51:21.747Z,-0.39
2023-01-19T04:53:48.129Z,-0.44
2023-01-19T04:56:14.505Z,-0.39
2023-01-19T04:58:40.896Z,-0.41
2023-01-19T05:01:07.358Z,-0.39
2023-01-19T05:03:33.806Z,-0.46
2023-01-19T05:06:00.227Z,-0.54
2023-01-19T05:08:26.593Z,-0.55
2023-01-19T05:10:53.012Z,-0.65
2023-01-19T05:13:19.406Z,-0.75
2023-01-19T05:15:45.830Z,-0.75
2023-01-19T05:18:12.315Z,-0.72
2023-01-19T05:20:38.680Z,-0.70
2023-01-19T05:23:05.079Z,-0.73
2023-01-19T05:25:31.455Z,-0.54
2023-01-19T05:27:57.832Z,-0.54
2023-01-19T05:30:24.197Z,-0.52
2023-01-19T05:32:50.559Z,-0.52
2023-01-19T05:35:20.117Z,-0.52
2023-01-19T05:37:51.414Z,-0.56
2023-01-19T05:40:17.791Z,-0.56
2023-01-19T05:42:44.183Z,-0.51
2023-01-19T05:45:10.550Z,-0.53
2023-01-19T05:47:36.945Z,-0.53
2023-01-19T05:50:03.320Z,-0.52
2023-01-19T05:52:29.700Z,-0.48
2023-01-19T05:54:56.125Z,-0.56
2023-01-19T05:57:22.486Z,-0.47
2023-01-19T05:59:48.881Z,-0.52
2023-01-19T06:02:15.332Z,-0.51
2023-01-19T06:04:41.736Z,-0.48
2023-01-19T06:07:08.128Z,-0.46
2023-01-19T06:09:34.563Z,-0.53
2023-01-19T06:12:00.943Z,-0.52
2023-01-19T06:14:27.334Z,-0.49
2023-01-19T06:16:53.699Z,-0.46
2023-01-19T06:19:20.072Z,-0.54
2023-01-19T06:21:46.492Z,-0.52
2023-01-19T06:24:14.448Z,-0.47
2023-01-19T06:26:40.950Z,-0.55
2023-01-19T06:29:07.341Z,-0.52
2023-01-19T06:31:33.729Z,-0.34
2023-01-19T06:34:00.147Z,-0.42
2023-01-19T06:36:26.505Z,-0.48
2023-01-19T06:38:52.869Z,-0.50
2023-01-19T06:41:19.228Z,-0.36
2023-01-19T06:43:45.644Z,-0.65
2023-01-19T06:46:12.109Z,-0.67
2023-01-19T06:48:38.508Z,-0.67
2023-01-19T06:51:04.900Z,-0.69
2023-01-19T06:53:31.308Z,-0.67
2023-01-19T06:55:57.808Z,-0.70
2023-01-19T06:58:24.684Z,-0.73
2023-01-19T07:00:51.200Z,-0.70
2023-01-19T07:03:18.139Z,-0.69
2023-01-19T07:05:44.568Z,-0.65
2023-01-19T07:08:10.957Z,-0.56
2023-01-19T07:11:27.147Z,-0.56
2023-01-19T07:13:23.653Z,-0.60
2023-01-19T07:15:50.104Z,-0.61
2023-01-19T07:18:16.481Z,-0.59
2023-01-19T07:20:42.856Z,-0.59
2023-01-19T07:23:09.216Z,-0.54
2023-01-19T07:25:35.588Z,-0.58
2023-01-19T07:28:01.960Z,-0.57
2023-01-19T07:30:28.482Z,-0.52
2023-01-19T07:32:54.907Z,-0.51
2023-01-19T07:35:21.268Z,-0.47
2023-01-19T07:37:47.690Z,-0.44
2023-01-19T07:40:14.045Z,-0.46
2023-01-19T07:42:40.423Z,-0.45
2023-01-19T07:45:06.784Z,-0.46
2023-01-19T07:47:33.217Z,-0.44
2023-01-19T07:49:59.572Z,-0.41
2023-01-19T07:52:25.944Z,-0.44
2023-01-19T07:54:52.396Z,-0.46
2023-01-19T07:57:18.753Z,-0.46
2023-01-19T07:59:45.140Z,-0.41
2023-01-19T08:02:11.590Z,-0.42
2023-01-19T08:04:38.064Z,-0.37
2023-01-19T08:07:04.503Z,-0.31
2023-01-19T08:09:30.879Z,-0.26
2023-01-19T08:11:57.324Z,-0.25
2023-01-19T08:14:23.688Z,-0.23
2023-01-19T08:16:50.057Z,-0.24
2023-01-19T08:19:16.472Z,-0.22
2023-01-19T08:21:42.828Z,-0.28
2023-01-19T08:24:09.237Z,-0.23
2023-01-19T08:26:35.786Z,-0.13
2023-01-19T08:29:02.183Z,-0.09
2023-01-19T08:31:28.649Z,0.01
2023-01-19T08:33:55.081Z,0.14
2023-01-19T08:36:21.514Z,0.17
2023-01-19T08:38:47.936Z,0.23
2023-01-19T08:41:14.387Z,0.32
2023-01-19T08:43:40.759Z,0.31
2023-01-19T08:46:07.160Z,0.45
2023-01-19T08:48:33.601Z,0.45
2023-01-19T08:50:59.966Z,0.52
2023-01-19T08:53:26.318Z,0.68
2023-01-19T08:55:52.691Z,0.79
2023-01-19T08:58:19.084Z,0.95
2023-01-19T09:00:45.532Z,1.22
2023-01-19T09:03:12.017Z,1.45
2023-01-19T09:05:38.422Z,1.47
2023-01-19T09:08:04.782Z,1.70
2023-01-19T09:10:31.148Z,1.75
2023-01-19T09:12:57.754Z,2.01
2023-01-19T09:15:24.239Z,2.04
2023-01-19T09:17:50.624Z,2.14
2023-01-19T09:20:17.004Z,2.22
2023-01-19T09:22:43.460Z,2.29
2023-01-19T09:25:10.008Z,2.48
2023-01-19T09:27:36.426Z,2.71
2023-01-19T09:30:02.805Z,2.72
2023-01-19T09:32:29.214Z,2.79
2023-01-19T09:34:55.592Z,2.75
2023-01-19T09:37:21.950Z,2.78
2023-01-19T09:39:48.407Z,2.88
2023-01-19T09:42:14.792Z,2.97
2023-01-19T09:44:41.180Z,3.02
2023-01-19T09:47:07.564Z,3.18
2023-01-19T09:49:33.945Z,2.94
2023-01-19T09:52:00.349Z,3.16
2023-01-19T09:54:26.754Z,3.23
2023-01-19T09:56:53.141Z,2.96
2023-01-19T09:59:19.538Z,3.17
2023-01-19T10:01:45.953Z,3.26
2023-01-19T10:04:12.370Z,3.21
2023-01-19T10:06:38.754Z,3.47
2023-01-19T10:09:05.120Z,3.38
2023-01-19T10:11:38.099Z,3.33
2023-01-19T10:14:13.069Z,3.69
2023-01-19T10:16:39.443Z,3.53
2023-01-19T10:19:06.175Z,3.60
2023-01-19T10:21:32.585Z,3.35
2023-01-19T10:23:59.168Z,2.69
2023-01-19T10:26:25.526Z,2.94
2023-01-19T10:28:51.963Z,2.73
2023-01-19T10:31:18.426Z,2.92
2023-01-19T10:33:44.880Z,3.19
2023-01-19T10:36:11.326Z,3.45
2023-01-19T10:38:37.725Z,3.15
2023-01-19T10:41:04.123Z,2.87
2023-01-19T10:43:30.647Z,2.46
2023-01-19T10:45:57.166Z,2.95
2023-01-19T10:48:23.553Z,2.87
2023-01-19T10:50:49.956Z,2.74
2023-01-19T10:53:16.346Z,3.17
2023-01-19T10:55:42.732Z,3.23
2023-01-19T10:58:09.109Z,3.16
2023-01-19T11:00:35.492Z,2.57
2023-01-19T11:03:02.313Z,3.16
2023-01-19T11:05:28.909Z,3.01
2023-01-19T11:07:55.316Z,2.93
2023-01-19T11:10:21.673Z,2.70
2023-01-19T11:12:48.053Z,2.94
2023-01-19T11:15:14.441Z,3.37
2023-01-19T11:17:40.805Z,4.14
2023-01-19T11:20:07.288Z,4.35
2023-01-19T11:22:33.701Z,4.37
2023-01-19T11:25:00.143Z,4.58
2023-01-19T11:27:26.546Z,3.82
2023-01-19T11:29:52.922Z,4.60
2023-01-19T11:32:19.286Z,4.92
2023-01-19T11:34:45.752Z,4.56
2023-01-19T11:37:12.125Z,4.51
2023-01-19T11:39:38.495Z,4.56
2023-01-19T11:42:04.899Z,4.40
2023-01-19T11:44:31.332Z,5.19
2023-01-19T11:46:57.720Z,5.75
2023-01-19T11:49:24.091Z,5.76
2023-01-19T11:51:50.530Z,5.69
2023-01-19T11:54:16.898Z,5.41
2023-01-19T11:56:43.302Z,5.38
2023-01-19T11:59:09.720Z,5.48
2023-01-19T12:01:36.107Z,6.22
2023-01-19T12:04:02.479Z,6.14
2023-01-19T12:06:28.842Z,5.97
2023-01-19T12:08:55.223Z,6.40
2023-01-19T12:11:21.600Z,5.18
2023-01-19T12:13:47.991Z,4.03
2023-01-19T12:16:14.381Z,4.69
2023-01-19T12:18:40.786Z,4.88
2023-01-19T12:21:07.188Z,5.19
2023-01-19T12:23:33.566Z,4.58
2023-01-19T12:25:59.957Z,3.70
2023-01-19T12:28:26.450Z,3.72
2023-01-19T12:30:52.943Z,4.17
2023-01-19T12:33:19.341Z,3.91
2023-01-19T12:35:45.739Z,4.46
2023-01-19T12:38:12.114Z,4.92
2023-01-19T12:40:38.518Z,5.39
2023-01-19T12:43:04.952Z,5.14
2023-01-19T12:45:31.333Z,4.00
2023-01-19T12:47:57.725Z,4.38
2023-01-19T12:50:24.229Z,4.58
2023-01-19T12:52:50.571Z,5.20
2023-01-19T12:55:16.948Z,6.05
2023-01-19T12:57:43.336Z,5.98
2023-01-19T13:00:09.716Z,5.86
2023-01-19T13:02:36.138Z,5.18
2023-01-19T13:05:02.534Z,5.95
2023-01-19T13:07:28.904Z,4.85
2023-01-19T13:09:55.337Z,5.06
2023-01-19T13:12:21.787Z,5.33
2023-01-19T13:14:48.231Z,4.92
2023-01-19T13:17:14.631Z,5.66
2023-01-19T13:19:41.009Z,6.38
2023-01-19T13:22:07.403Z,5.92
2023-01-19T13:24:33.773Z,6.04
2023-01-19T13:27:01.271Z,6.85
2023-01-19T13:29:27.688Z,6.27
2023-01-19T13:31:54.063Z,6.42
2023-01-19T13:34:20.554Z,7.01
2023-01-19T13:36:47.005Z,7.26
2023-01-19T13:39:13.399Z,7.75
2023-01-19T13:41:39.794Z,7.40
2023-01-19T13:44:06.185Z,7.63
2023-01-19T13:46:32.558Z,7.66
2023-01-19T13:48:58.925Z,7.29
2023-01-19T13:51:25.296Z,8.11
2023-01-19T13:53:51.813Z,8.52
2023-01-19T13:56:18.269Z,7.27
2023-01-19T13:58:44.698Z,7.50
2023-01-19T14:01:11.180Z,7.50
2023-01-19T14:03:37.684Z,8.44
2023-01-19T14:06:04.107Z,9.37
2023-01-19T14:08:30.581Z,9.18
2023-01-19T14:10:56.977Z,9.76
2023-01-19T14:13:23.367Z,9.56
2023-01-19T14:15:49.872Z,10.34
2023-01-19T14:18:16.295Z,10.86
2023-01-19T14:20:42.742Z,11.24
2023-01-19T14:23:09.097Z,11.81
2023-01-19T14:25:35.510Z,12.55
2023-01-19T14:28:01.991Z,13.34
2023-01-19T14:30:28.379Z,12.27
2023-01-19T14:32:54.771Z,12.42
2023-01-19T14:35:21.145Z,13.03
2023-01-19T14:37:47.516Z,13.71
2023-01-19T14:40:13.892Z,13.19
2023-01-19T14:42:40.293Z,13.65
2023-01-19T14:45:07.180Z,14.64
2023-01-19T14:47:33.833Z,15.15
2023-01-19T14:50:00.229Z,15.93
2023-01-19T14:52:26.598Z,16.02
2023-01-19T14:54:52.992Z,15.42
2023-01-19T14:57:19.367Z,14.50
2023-01-19T14:59:45.739Z,14.40
2023-01-19T15:02:12.163Z,13.65
2023-01-19T15:04:38.639Z,13.99
2023-01-19T15:07:05.029Z,13.00
2023-01-19T15:09:31.415Z,12.84
2023-01-19T15:11:57.802Z,12.88
2023-01-19T15:14:24.190Z,12.62
2023-01-19T15:16:50.587Z,11.55
2023-01-19T15:19:17.002Z,12.61
2023-01-19T15:21:43.377Z,13.05
2023-01-19T15:24:09.767Z,13.43
2023-01-19T15:26:36.221Z,13.49
2023-01-19T15:29:02.601Z,12.85
2023-01-19T15:31:29.011Z,12.02
2023-01-19T15:33:55.424Z,11.87
2023-01-19T15:36:21.886Z,10.86
2023-01-19T15:38:48.284Z,9.98
2023-01-19T15:41:14.723Z,9.25
2023-01-19T15:43:41.107Z,7.90
2023-01-19T15:46:07.537Z,8.52
2023-01-19T15:48:33.947Z,8.37
2023-01-19T15:51:00.407Z,8.97
2023-01-19T15:53:26.796Z,8.95
2023-01-19T15:55:53.173Z,7.77
2023-01-19T15:58:19.527Z,8.31
2023-01-19T16:00:45.958Z,7.48
2023-01-19T16:03:12.366Z,6.59
2023-01-19T16:05:42.964Z,5.91
2023-01-19T16:08:09.722Z,5.50
2023-01-19T16:10:36.109Z,5.14
2023-01-19T16:13:02.506Z,4.83
2023-01-19T16:15:28.898Z,4.64
2023-01-19T16:17:55.291Z,4.65
2023-01-19T16:20:21.678Z,4.48
2023-01-19T16:22:48.062Z,4.36
2023-01-19T16:25:14.437Z,4.31
2023-01-19T16:27:40.833Z,4.24
2023-01-19T16:30:07.273Z,4.02
2023-01-19T16:32:33.724Z,4.09
2023-01-19T16:35:00.295Z,3.98
2023-01-19T16:37:28.061Z,3.86
2023-01-19T16:39:54.541Z,3.91
2023-01-19T16:42:20.913Z,3.67
2023-01-19T16:45:02.337Z,3.50
2023-01-19T16:47:28.731Z,3.48
2023-01-19T16:49:55.140Z,3.47
2023-01-19T16:52:21.526Z,3.40
2023-01-19T16:54:47.906Z,3.36
2023-01-19T16:57:14.311Z,3.23
2023-01-19T16:59:40.659Z,3.33
2023-01-19T17:02:07.150Z,3.15
2023-01-19T17:04:33.592Z,3.09
2023-01-19T17:06:59.975Z,3.04
2023-01-19T17:09:26.364Z,3.09
2023-01-19T17:11:52.729Z,3.08
2023-01-19T17:14:19.100Z,3.18
2023-01-19T17:16:45.501Z,3.11
2023-01-19T17:19:11.888Z,3.06
2023-01-19T17:21:38.272Z,3.09
2023-01-19T17:24:04.678Z,2.97
2023-01-19T17:26:31.135Z,2.85
2023-01-19T17:28:57.604Z,2.96
2023-01-19T17:31:24.100Z,3.03
2023-01-19T17:33:50.569Z,2.99
2023-01-19T17:36:16.928Z,2.83
2023-01-19T17:41:27.327Z,3.59
2023-01-19T17:43:53.672Z,3.21
2023-01-19T17:46:20.094Z,2.98
2023-01-19T17:48:46.516Z,2.86
2023-01-19T17:51:12.903Z,2.75
2023-01-19T17:53:39.311Z,2.69
2023-01-19T17:56:05.683Z,2.58
2023-01-19T17:58:32.043Z,2.33
2023-01-19T18:00:58.434Z,2.33
2023-01-19T18:03:24.886Z,2.19
2023-01-19T18:05:51.243Z,2.06
2023-01-19T18:08:17.612Z,2.06
2023-01-19T18:10:52.893Z,2.04
2023-01-19T18:13:19.241Z,1.94
2023-01-19T18:15:45.705Z,2.06
2023-01-19T18:18:12.112Z,1.96
2023-01-19T18:20:38.510Z,1.93
2023-01-19T18:23:04.903Z,1.97
2023-01-19T18:25:31.331Z,1.98
2023-01-19T18:27:57.759Z,2.09
2023-01-19T18:30:24.277Z,2.08
2023-01-19T18:32:50.694Z,2.07
2023-01-19T18:35:17.081Z,2.00
2023-01-19T18:37:43.544Z,2.03
2023-01-19T18:40:09.977Z,2.03
2023-01-19T18:42:36.481Z,1.95
2023-01-19T18:45:02.879Z,1.95
2023-01-19T18:47:29.254Z,1.96
2023-01-19T18:49:55.731Z,1.90
2023-01-19T18:52:22.115Z,1.68
2023-01-19T18:54:48.628Z,1.66
2023-01-19T18:57:15.087Z,1.47
2023-01-19T18:59:41.610Z,1.52
2023-01-19T19:02:08.020Z,1.51
2023-01-19T19:04:34.378Z,1.66
2023-01-19T19:07:00.753Z,1.51
2023-01-19T19:09:27.128Z,1.35
2023-01-19T19:11:53.552Z,1.48
2023-01-19T19:14:22.235Z,1.53
2023-01-19T19:16:48.709Z,1.53
2023-01-19T19:19:15.099Z,1.52
2023-01-19T19:21:41.551Z,1.51
2023-01-19T19:24:07.943Z,1.36
2023-01-19T19:26:34.310Z,1.44
2023-01-19T19:29:00.834Z,1.22
2023-01-19T19:31:27.223Z,1.14
2023-01-19T19:33:53.808Z,1.08
2023-01-19T19:36:20.255Z,1.15
2023-01-19T19:38:46.807Z,1.14
2023-01-19T19:41:13.255Z,1.12
2023-01-19T19:43:41.074Z,1.04
2023-01-19T19:46:07.465Z,1.08
2023-01-19T19:48:33.896Z,0.99
2023-01-19T19:51:09.434Z,1.11
2023-01-19T19:53:43.301Z,1.18
2023-01-19T19:56:09.752Z,1.17
2023-01-19T19:58:36.157Z,1.23
2023-01-19T20:01:02.685Z,1.42
2023-01-19T20:03:29.117Z,0.98
2023-01-19T20:05:55.557Z,0.70
2023-01-19T20:08:21.935Z,0.44
2023-01-19T20:10:48.300Z,0.24
2023-01-19T20:13:14.681Z,0.48
2023-01-19T20:15:41.084Z,0.58
2023-01-19T20:18:07.457Z,0.80
2023-01-19T20:20:33.865Z,0.74
2023-01-19T20:23:00.251Z,0.79
2023-01-19T20:25:26.644Z,0.79
2023-01-19T20:27:53.048Z,0.72
2023-01-19T20:30:19.539Z,0.77
2023-01-19T20:32:45.984Z,0.76
2023-01-19T20:35:12.762Z,0.71
2023-01-19T20:37:39.309Z,0.82
2023-01-19T20:40:05.909Z,0.71
2023-01-19T20:42:32.438Z,0.77
2023-01-19T20:44:58.856Z,0.90
2023-01-19T20:47:25.308Z,0.91
2023-01-19T20:49:51.719Z,0.91
2023-01-19T20:52:18.073Z,0.82
2023-01-19T20:54:44.497Z,0.89
2023-01-19T20:57:10.983Z,0.93
2023-01-19T20:59:37.360Z,0.94
2023-01-19T21:02:03.871Z,0.93
2023-01-19T21:04:30.273Z,0.99
2023-01-19T21:06:56.672Z,0.89
2023-01-19T21:09:23.036Z,0.91
2023-01-19T21:11:49.389Z,0.74
2023-01-19T21:14:15.799Z,0.69
2023-01-19T21:16:42.273Z,0.81
2023-01-19T21:19:08.794Z,0.81
2023-01-19T21:21:35.177Z,0.64
2023-01-19T21:24:01.535Z,0.59
2023-01-19T21:26:27.923Z,0.59
2023-01-19T21:28:54.273Z,0.56
2023-01-19T21:31:20.681Z,0.52
2023-01-19T21:33:47.063Z,0.67
2023-01-19T21:36:13.417Z,0.62
2023-01-19T21:38:39.785Z,0.49
2023-01-19T21:41:06.152Z,0.49
2023-01-19T21:43:32.523Z,0.31
2023-01-19T21:45:59.020Z,0.23
2023-01-19T21:48:25.480Z,0.27
2023-01-19T21:50:51.924Z,0.20
2023-01-19T21:53:18.341Z,0.14
2023-01-19T21:55:44.699Z,0.20
2023-01-19T21:58:11.050Z,0.20
2023-01-19T22:00:37.575Z,0.08
2023-01-19T22:03:04.893Z,0.10
2023-01-19T22:05:31.422Z,0.06
2023-01-19T22:07:57.776Z,0.18
2023-01-19T22:10:24.182Z,0.30
2023-01-19T22:12:50.554Z,0.30
2023-01-19T22:15:16.915Z,0.10
2023-01-19T22:17:43.314Z,0.04
2023-01-19T22:20:09.668Z,0.10
2023-01-19T22:22:36.030Z,-0.12
2023-01-19T22:25:02.406Z,-0.33
2023-01-19T22:27:28.869Z,-0.20
2023-01-19T22:29:55.414Z,-0.13
2023-01-19T22:32:21.800Z,-0.12
2023-01-19T22:34:48.200Z,-0.33
2023-01-19T22:37:14.595Z,-0.45
2023-01-19T22:39:40.989Z,-0.38
2023-01-19T22:42:07.369Z,-0.33
2023-01-19T22:44:33.813Z,-0.26
2023-01-19T22:47:00.184Z,-0.22
2023-01-19T22:49:26.536Z,-0.24
2023-01-19T22:51:52.924Z,-0.24
2023-01-19T22:54:19.297Z,-0.30
2023-01-19T22:56:45.679Z,-0.40
2023-01-19T22:59:12.042Z,-0.56
2023-01-19T23:01:38.539Z,-0.44
2023-01-19T23:04:04.974Z,-0.74
2023-01-19T23:06:31.355Z,-0.69
2023-01-19T23:08:57.743Z,-0.65
2023-01-19T23:11:24.109Z,-0.63
2023-01-19T23:13:50.492Z,-0.75
2023-01-19T23:16:16.960Z,-0.76
2023-01-19T23:18:43.330Z,-0.80
2023-01-19T23:21:09.711Z,-0.59
2023-01-19T23:23:36.092Z,-0.50
2023-01-19T23:26:02.454Z,-0.46
2023-01-19T23:28:28.834Z,-0.53
2023-01-19T23:30:55.270Z,-0.68
2023-01-19T23:33:21.767Z,-0.62
2023-01-19T23:35:48.133Z,-0.61
2023-01-19T23:38:14.510Z,-0.69
2023-01-19T23:40:40.961Z,-0.65
2023-01-19T23:43:07.330Z,-0.63
2023-01-19T23:45:33.705Z,-0.60
2023-01-19T23:48:00.120Z,-0.60
2023-01-19T23:50:26.504Z,-0.61
2023-01-19T23:52:52.877Z,-0.59
2023-01-19T23:55:19.231Z,-0.53
2023-01-19T23:57:45.631Z,-0.56
